Time;durP1;ratioP1;P1;durP2;ratioP2;P2;SDS_P1;SDS_P2;PMS_P1;PMS_P2;Temp;Humidity;BMP_temperature;BMP_pressure;BME280_temperature;BME280_humidity;BME280_pressure;Samples;Min_cycle;Max_cycle;Signal;HPM_P1;HPM_P2
2024/03/04 00:01:00;;;;;;;;;;;10.00;1.00;;;;;;5083454;28;19913;-86
2024/03/04 00:03:26;;;;;;;;;;;10.00;1.00;;;;;;5083804;28;19915;-83
2024/03/04 00:05:51;;;;;;;;;;;10.00;1.00;;;;;;5084473;28;19912;-84
2024/03/04 00:08:17;;;;;;;;;;;9.90;1.00;;;;;;5098901;28;19909;-84
2024/03/04 00:10:43;;;;;;;;;;;10.00;1.00;;;;;;5074684;28;19924;-84
2024/03/04 00:13:08;;;;;;;;;;;10.00;1.00;;;;;;5077286;28;19920;-82
2024/03/04 00:15:35;;;;;;;;;;;9.90;1.00;;;;;;5081576;28;19912;-84
2024/03/04 00:18:00;;;;;;;;;;;9.90;1.00;;;;;;5097196;28;20077;-83
2024/03/04 00:20:26;;;;;;;;;;;9.90;1.00;;;;;;5092975;28;19935;-84
2024/03/04 00:22:51;;;;;;;;;;;9.90;1.00;;;;;;5090767;28;20325;-84
2024/03/04 00:25:16;;;;;;;;;;;9.90;1.00;;;;;;5090082;28;20113;-83
2024/03/04 00:27:42;;;;;;;;;;;9.90;1.00;;;;;;5091928;28;19919;-82
2024/03/04 00:30:08;;;;;;;;;;;9.90;1.00;;;;;;5075493;28;19924;-85
2024/03/04 00:32:33;;;;;;;;;;;9.90;1.00;;;;;;5072808;28;19912;-84
2024/03/04 00:34:59;;;;;;;;;;;9.90;1.00;;;;;;5081921;28;19939;-83
2024/03/04 00:37:25;;;;;;;;;;;9.90;1.00;;;;;;5085492;28;19912;-83
2024/03/04 00:39:51;;;;;;;;;;;9.90;1.00;;;;;;5081062;28;19912;-83
2024/03/04 00:42:17;;;;;;;;;;;9.90;1.00;;;;;;5070378;28;19919;-84
2024/03/04 00:44:43;;;;;;;;;;;9.90;1.00;;;;;;5077642;28;19959;-84
2024/03/04 00:47:08;;;;;;;;;;;9.90;1.00;;;;;;5075996;28;20386;-82
2024/03/04 00:49:34;;;;;;;;;;;9.90;1.00;;;;;;5079652;28;19959;-82
2024/03/04 00:52:00;;;;;;;;;;;9.80;1.00;;;;;;5086240;28;19919;-82
2024/03/04 00:54:25;;;;;;;;;;;9.80;1.00;;;;;;5077667;28;19996;-82
2024/03/04 00:56:51;;;;;;;;;;;9.80;1.00;;;;;;5062982;28;19920;-84
2024/03/04 00:59:17;;;;;;;;;;;9.80;1.00;;;;;;5072191;28;19958;-82
2024/03/04 01:01:43;;;;;;;;;;;9.80;1.00;;;;;;5081275;28;19913;-83
2024/03/04 01:04:09;;;;;;;;;;;9.70;1.00;;;;;;5080135;28;19920;-84
2024/03/04 01:06:35;;;;;;;;;;;9.80;1.00;;;;;;5076807;28;19942;-83
2024/03/04 01:09:01;;;;;;;;;;;9.70;1.00;;;;;;5076956;28;20001;-83
2024/03/04 01:11:26;;;;;;;;;;;9.70;1.00;;;;;;5073491;28;19916;-83
2024/03/04 01:13:52;;;;;;;;;;;9.70;1.00;;;;;;5073746;28;19912;-82
2024/03/04 01:16:18;;;;;;;;;;;9.70;1.00;;;;;;5085412;28;20366;-83
2024/03/04 01:18:45;;;;;;;;;;;9.70;1.00;;;;;;5093824;28;19965;-84
2024/03/04 01:21:11;;;;;;;;;;;9.70;1.00;;;;;;5070709;28;19991;-83
2024/03/04 01:23:37;;;;;;;;;;;9.70;1.00;;;;;;5074436;28;21347;-84
2024/03/04 01:26:02;;;;;;;;;;;9.70;1.00;;;;;;5083552;28;19913;-83
2024/03/04 01:28:28;;;;;;;;;;;9.70;1.00;;;;;;5081426;28;19935;-83
2024/03/04 01:30:55;;;;;;;;;;;9.60;1.00;;;;;;5086183;28;20077;-84
2024/03/04 01:33:20;;;;;;;;;;;9.60;1.00;;;;;;5075155;28;19920;-83
2024/03/04 01:35:46;;;;;;;;;;;9.50;1.00;;;;;;5081157;28;19931;-84
2024/03/04 01:38:11;;;;;;;;;;;9.50;1.00;;;;;;5084852;28;19913;-84
2024/03/04 01:40:37;;;;;;;;;;;9.50;1.00;;;;;;5085364;28;19934;-84
2024/03/04 01:43:02;;;;;;;;;;;9.50;1.00;;;;;;5086109;28;19927;-83
2024/03/04 01:45:28;;;;;;;;;;;9.50;1.00;;;;;;5081928;28;19912;-84
2024/03/04 01:47:57;;;;;;;;;;;9.50;1.00;;;;;;5100017;28;19908;-85
2024/03/04 01:50:25;;;;;;;;;;;9.50;1.00;;;;;;5097573;28;20397;-82
2024/03/04 01:52:50;;;;;;;;;;;9.50;1.00;;;;;;5093740;28;19961;-84
2024/03/04 01:55:16;;;;;;;;;;;9.50;1.00;;;;;;5092665;28;19908;-83
2024/03/04 01:57:43;;;;;;;;;;;9.50;1.00;;;;;;5100400;28;20019;-82
2024/03/04 02:00:11;;;;;;;;;;;9.60;1.00;;;;;;5092654;28;19908;-82
2024/03/04 02:02:40;;;;;;;;;;;9.60;1.00;;;;;;5091598;28;19954;-83
2024/03/04 02:05:09;;;;;;;;;;;9.60;1.00;;;;;;5083818;28;19927;-83
2024/03/04 02:07:38;;;;;;;;;;;9.60;1.00;;;;;;5085637;28;19975;-84
2024/03/04 02:10:05;;;;;;;;;;;9.60;1.00;;;;;;5097247;28;20899;-83
2024/03/04 02:12:31;;;;;;;;;;;9.60;1.00;;;;;;5077557;28;20328;-85
2024/03/04 02:14:57;;;;;;;;;;;9.60;1.00;;;;;;5077593;28;19913;-84
2024/03/04 02:17:24;;;;;;;;;;;9.60;1.00;;;;;;5064332;28;19920;-83
2024/03/04 02:19:50;;;;;;;;;;;9.50;1.00;;;;;;5073532;28;19913;-83
2024/03/04 02:22:16;;;;;;;;;;;9.50;1.00;;;;;;5078423;28;19947;-83
2024/03/04 02:24:42;;;;;;;;;;;9.50;1.00;;;;;;5080907;28;19922;-82
2024/03/04 02:27:08;;;;;;;;;;;9.50;1.00;;;;;;5089093;28;19916;-83
2024/03/04 02:29:33;;;;;;;;;;;9.50;1.00;;;;;;5099106;28;19913;-84
2024/03/04 02:31:59;;;;;;;;;;;9.50;1.00;;;;;;5086131;28;19913;-83
2024/03/04 02:34:25;;;;;;;;;;;9.50;1.00;;;;;;5088306;28;19912;-83
2024/03/04 02:36:51;;;;;;;;;;;9.40;1.00;;;;;;5092667;28;20361;-83
2024/03/04 02:39:18;;;;;;;;;;;9.40;1.00;;;;;;5098250;28;19912;-84
2024/03/04 02:41:43;;;;;;;;;;;9.40;1.00;;;;;;5087345;28;19966;-82
2024/03/04 02:44:08;;;;;;;;;;;9.40;1.00;;;;;;5082718;28;19920;-84
2024/03/04 02:46:34;;;;;;;;;;;9.40;1.00;;;;;;5081428;28;19913;-84
2024/03/04 02:48:59;;;;;;;;;;;9.40;1.00;;;;;;5088119;28;19921;-83
2024/03/04 02:51:25;;;;;;;;;;;9.30;1.00;;;;;;5079217;28;19962;-82
2024/03/04 02:53:51;;;;;;;;;;;9.30;1.00;;;;;;5080020;28;19912;-83
2024/03/04 02:56:16;;;;;;;;;;;9.30;1.00;;;;;;5081397;28;20298;-83
2024/03/04 02:58:42;;;;;;;;;;;9.30;1.00;;;;;;5079658;28;19909;-83
2024/03/04 03:01:07;;;;;;;;;;;9.30;1.00;;;;;;5095466;28;19916;-83
2024/03/04 03:03:33;;;;;;;;;;;9.30;1.00;;;;;;5091898;28;20000;-82
2024/03/04 03:05:58;;;;;;;;;;;9.30;1.00;;;;;;5068368;28;19997;-84
2024/03/04 03:08:25;;;;;;;;;;;9.20;1.00;;;;;;5087287;28;19920;-82
2024/03/04 03:10:50;;;;;;;;;;;9.30;1.00;;;;;;5080777;28;19935;-83
2024/03/04 03:13:16;;;;;;;;;;;9.20;1.00;;;;;;5081622;28;19920;-85
2024/03/04 03:15:41;;;;;;;;;;;9.20;1.00;;;;;;5087776;28;19939;-82
2024/03/04 03:18:07;;;;;;;;;;;9.20;1.00;;;;;;5077631;28;19920;-82
2024/03/04 03:20:33;;;;;;;;;;;9.30;1.00;;;;;;5079790;28;19912;-86
2024/03/04 03:22:58;;;;;;;;;;;9.30;1.00;;;;;;5084397;28;19936;-83
2024/03/04 03:25:25;;;;;;;;;;;9.20;1.00;;;;;;5075836;28;19908;-83
2024/03/04 03:27:50;;;;;;;;;;;9.20;1.00;;;;;;5082984;28;19913;-83
2024/03/04 03:30:15;;;;;;;;;;;9.20;1.00;;;;;;5083299;28;19981;-83
2024/03/04 03:32:41;;;;;;;;;;;9.20;1.00;;;;;;5087090;28;19916;-84
2024/03/04 03:35:07;;;;;;;;;;;9.20;1.00;;;;;;5075523;28;19909;-83
2024/03/04 03:37:34;;;;;;;;;;;9.20;1.00;;;;;;5079603;28;19920;-84
2024/03/04 03:39:59;;;;;;;;;;;9.20;1.00;;;;;;5090627;28;20339;-83
2024/03/04 03:42:25;;;;;;;;;;;9.20;1.00;;;;;;5105218;28;19916;-83
2024/03/04 03:44:50;;;;;;;;;;;9.20;1.00;;;;;;5096177;28;20495;-84
2024/03/04 03:47:16;;;;;;;;;;;9.20;1.00;;;;;;5084209;28;19909;-84
2024/03/04 03:49:41;;;;;;;;;;;9.10;1.00;;;;;;5077902;28;19917;-83
2024/03/04 03:52:07;;;;;;;;;;;9.10;1.00;;;;;;5090013;28;19912;-84
2024/03/04 03:54:32;;;;;;;;;;;9.10;1.00;;;;;;5078335;28;20396;-82
2024/03/04 03:56:58;;;;;;;;;;;9.10;1.00;;;;;;5087848;28;19958;-84
2024/03/04 03:59:23;;;;;;;;;;;9.10;1.00;;;;;;5069474;28;20416;-82
2024/03/04 04:01:49;;;;;;;;;;;9.10;1.00;;;;;;5076680;28;19956;-84
2024/03/04 04:04:14;;;;;;;;;;;9.10;1.00;;;;;;5077573;28;19912;-83
2024/03/04 04:06:40;;;;;;;;;;;9.10;1.00;;;;;;5073456;28;20377;-83
2024/03/04 04:09:06;;;;;;;;;;;9.10;1.00;;;;;;5075857;28;20019;-82
2024/03/04 04:11:32;;;;;;;;;;;9.10;1.00;;;;;;5066375;28;19919;-82
2024/03/04 04:13:57;;;;;;;;;;;9.10;1.00;;;;;;5067727;28;19916;-85
2024/03/04 04:16:26;;;;;;;;;;;9.10;1.00;;;;;;5072421;28;19951;-84
2024/03/04 04:18:51;;;;;;;;;;;9.10;1.00;;;;;;5079127;28;19913;-83
2024/03/04 04:21:19;;;;;;;;;;;9.10;1.00;;;;;;5080268;28;20716;-85
2024/03/04 04:23:45;;;;;;;;;;;9.10;1.00;;;;;;5070503;28;19919;-83
2024/03/04 04:26:10;;;;;;;;;;;9.10;1.00;;;;;;5070997;28;19912;-83
2024/03/04 04:28:36;;;;;;;;;;;9.10;1.00;;;;;;5076335;28;19919;-84
2024/03/04 04:31:02;;;;;;;;;;;9.10;1.00;;;;;;5088361;28;19923;-83
2024/03/04 04:33:28;;;;;;;;;;;9.10;1.00;;;;;;5088455;28;19932;-84
2024/03/04 04:35:53;;;;;;;;;;;9.10;1.00;;;;;;5083956;28;19909;-83
2024/03/04 04:38:19;;;;;;;;;;;9.10;1.00;;;;;;5079869;28;19912;-83
2024/03/04 04:40:45;;;;;;;;;;;9.10;1.00;;;;;;5081430;28;19912;-83
2024/03/04 04:43:10;;;;;;;;;;;9.10;1.00;;;;;;5083652;28;19932;-84
2024/03/04 04:45:36;;;;;;;;;;;9.00;1.00;;;;;;5075397;28;19912;-84
2024/03/04 04:48:01;;;;;;;;;;;9.00;1.00;;;;;;5087477;28;20382;-83
2024/03/04 04:50:27;;;;;;;;;;;9.00;1.00;;;;;;5083574;28;19927;-84
2024/03/04 04:52:53;;;;;;;;;;;9.00;1.00;;;;;;5083433;28;19954;-85
2024/03/04 04:55:18;;;;;;;;;;;9.00;1.00;;;;;;5079461;28;20363;-82
2024/03/04 04:57:44;;;;;;;;;;;9.00;1.00;;;;;;5074510;28;19913;-83
2024/03/04 05:00:12;;;;;;;;;;;9.00;1.00;;;;;;5081058;28;19919;-84
2024/03/04 05:02:38;;;;;;;;;;;9.00;1.00;;;;;;5074038;28;19916;-84
2024/03/04 05:05:03;;;;;;;;;;;9.00;1.00;;;;;;5088619;28;19920;-84
2024/03/04 05:07:29;;;;;;;;;;;9.00;1.00;;;;;;5082668;28;19943;-82
2024/03/04 05:09:55;;;;;;;;;;;8.90;1.00;;;;;;5080969;28;19923;-83
2024/03/04 05:12:24;;;;;;;;;;;8.90;1.00;;;;;;5079699;28;19920;-83
2024/03/04 05:14:52;;;;;;;;;;;9.00;1.00;;;;;;5078368;28;20401;-82
2024/03/04 05:17:17;;;;;;;;;;;9.00;1.00;;;;;;5082565;28;19975;-83
2024/03/04 05:19:43;;;;;;;;;;;9.00;1.00;;;;;;5081028;28;19951;-83
2024/03/04 05:22:12;;;;;;;;;;;9.00;1.00;;;;;;5087244;28;20430;-81
2024/03/04 05:24:38;;;;;;;;;;;9.00;1.00;;;;;;5072853;28;19921;-83
2024/03/04 05:27:03;;;;;;;;;;;9.00;1.00;;;;;;5078621;28;19917;-82
2024/03/04 05:29:29;;;;;;;;;;;9.00;1.00;;;;;;5082895;28;19924;-83
2024/03/04 05:31:57;;;;;;;;;;;9.00;1.00;;;;;;5085485;28;19912;-82
2024/03/04 05:34:22;;;;;;;;;;;9.00;1.00;;;;;;5089447;28;19965;-82
2024/03/04 05:36:48;;;;;;;;;;;9.10;1.00;;;;;;5072314;28;19912;-83
2024/03/04 05:39:18;;;;;;;;;;;9.10;1.00;;;;;;5084787;28;19919;-82
2024/03/04 05:41:44;;;;;;;;;;;9.10;1.00;;;;;;5079274;28;19977;-83
2024/03/04 05:44:09;;;;;;;;;;;9.10;1.00;;;;;;5079417;28;19912;-84
2024/03/04 05:46:35;;;;;;;;;;;9.10;1.00;;;;;;5088403;28;19948;-82
2024/03/04 05:49:01;;;;;;;;;;;9.10;1.00;;;;;;5083144;28;19918;-83
2024/03/04 05:51:26;;;;;;;;;;;9.10;1.00;;;;;;5075745;28;19916;-83
2024/03/04 05:53:51;;;;;;;;;;;9.10;1.00;;;;;;5094087;28;19908;-82
2024/03/04 05:56:17;;;;;;;;;;;9.00;1.00;;;;;;5081567;28;20298;-83
2024/03/04 05:58:42;;;;;;;;;;;9.00;1.00;;;;;;5084535;28;19908;-84
2024/03/04 06:01:08;;;;;;;;;;;9.00;1.00;;;;;;5086358;28;19984;-84
2024/03/04 06:03:34;;;;;;;;;;;9.00;1.00;;;;;;5085752;28;20097;-83
2024/03/04 06:06:00;;;;;;;;;;;9.00;1.00;;;;;;5086275;28;19908;-84
2024/03/04 06:08:25;;;;;;;;;;;8.90;1.00;;;;;;5094250;28;20298;-85
2024/03/04 06:10:51;;;;;;;;;;;8.90;1.00;;;;;;5094941;28;19935;-84
2024/03/04 06:13:17;;;;;;;;;;;8.90;1.00;;;;;;5090614;28;19908;-84
2024/03/04 06:15:42;;;;;;;;;;;8.90;1.00;;;;;;5102545;28;19912;-85
2024/03/04 06:18:08;;;;;;;;;;;8.90;1.00;;;;;;5086185;28;19918;-85
2024/03/04 06:20:33;;;;;;;;;;;8.90;1.00;;;;;;5091437;28;19921;-85
2024/03/04 06:22:59;;;;;;;;;;;8.90;1.00;;;;;;5099301;28;19908;-84
2024/03/04 06:25:25;;;;;;;;;;;8.80;1.00;;;;;;5097773;28;19969;-84
2024/03/04 06:27:50;;;;;;;;;;;8.80;1.00;;;;;;5082264;28;19954;-84
2024/03/04 06:30:16;;;;;;;;;;;8.80;1.00;;;;;;5095254;28;19916;-84
2024/03/04 06:32:41;;;;;;;;;;;8.80;1.00;;;;;;5098179;28;19925;-83
2024/03/04 06:35:07;;;;;;;;;;;8.80;1.00;;;;;;5084409;28;19917;-84
2024/03/04 06:37:33;;;;;;;;;;;8.90;1.00;;;;;;5089002;28;19958;-83
2024/03/04 06:39:58;;;;;;;;;;;8.90;1.00;;;;;;5074347;28;19912;-84
2024/03/04 06:42:24;;;;;;;;;;;8.90;1.00;;;;;;5093994;28;20355;-83
2024/03/04 06:44:49;;;;;;;;;;;8.90;1.00;;;;;;5103672;28;19955;-83
2024/03/04 06:47:15;;;;;;;;;;;8.90;1.00;;;;;;5099897;28;20011;-84
2024/03/04 06:49:41;;;;;;;;;;;8.90;1.00;;;;;;5096105;28;20044;-84
2024/03/04 06:52:07;;;;;;;;;;;8.90;1.00;;;;;;5095259;28;20006;-83
2024/03/04 06:54:33;;;;;;;;;;;8.90;1.00;;;;;;5094853;28;20405;-83
2024/03/04 06:56:58;;;;;;;;;;;8.90;1.00;;;;;;5076741;28;19919;-82
2024/03/04 06:59:24;;;;;;;;;;;8.90;1.00;;;;;;5092745;28;19948;-84
2024/03/04 07:01:49;;;;;;;;;;;8.90;1.00;;;;;;5085522;28;19920;-84
2024/03/04 07:04:15;;;;;;;;;;;9.00;1.00;;;;;;5099032;28;19918;-83
2024/03/04 07:06:40;;;;;;;;;;;9.10;99.90;;;;;;5091444;28;19971;-84
2024/03/04 07:09:06;;;;;;;;;;;9.20;99.90;;;;;;5100436;28;19930;-84
2024/03/04 07:11:32;;;;;;;;;;;9.30;99.90;;;;;;5082359;28;19912;-84
2024/03/04 07:13:57;;;;;;;;;;;9.30;99.90;;;;;;5081905;28;20310;-83
2024/03/04 07:16:23;;;;;;;;;;;9.30;99.90;;;;;;5082444;28;19912;-83
2024/03/04 07:18:49;;;;;;;;;;;9.30;99.90;;;;;;5079772;28;19984;-85
2024/03/04 07:21:15;;;;;;;;;;;9.30;99.90;;;;;;5088514;28;19916;-83
2024/03/04 07:23:41;;;;;;;;;;;9.20;59.50;;;;;;5092832;28;19912;-83
2024/03/04 07:26:07;;;;;;;;;;;9.30;93.80;;;;;;5091935;28;19956;-85
2024/03/04 07:28:32;;;;;;;;;;;9.30;2.90;;;;;;5100933;28;19915;-83
2024/03/04 07:30:58;;;;;;;;;;;9.30;41.80;;;;;;5094652;28;19916;-82
2024/03/04 07:33:24;;;;;;;;;;;9.30;88.40;;;;;;5092039;28;19916;-83
2024/03/04 07:35:49;;;;;;;;;;;9.30;92.20;;;;;;5093707;28;19969;-85
2024/03/04 07:38:14;;;;;;;;;;;9.40;99.90;;;;;;5088539;28;19919;-83
2024/03/04 07:40:40;;;;;;;;;;;9.40;99.90;;;;;;5101485;28;19923;-83
2024/03/04 07:43:05;;;;;;;;;;;9.40;91.90;;;;;;5080919;28;19920;-84
2024/03/04 07:45:31;;;;;;;;;;;9.40;1.00;;;;;;5084473;28;19940;-83
2024/03/04 07:47:56;;;;;;;;;;;9.40;1.00;;;;;;5090526;28;19926;-84
2024/03/04 07:50:25;;;;;;;;;;;9.40;1.00;;;;;;5082058;28;20409;-85
2024/03/04 07:52:50;;;;;;;;;;;9.40;1.00;;;;;;5079259;28;19915;-82
2024/03/04 07:55:16;;;;;;;;;;;9.50;1.00;;;;;;5082113;28;19909;-82
2024/03/04 07:57:43;;;;;;;;;;;9.50;1.00;;;;;;5076635;28;19931;-83
2024/03/04 08:00:09;;;;;;;;;;;9.50;1.00;;;;;;5079847;28;19909;-82
2024/03/04 08:02:34;;;;;;;;;;;9.60;1.00;;;;;;5079912;28;19909;-84
2024/03/04 08:05:00;;;;;;;;;;;9.70;1.00;;;;;;5080394;28;20079;-83
2024/03/04 08:07:25;;;;;;;;;;;9.70;99.90;;;;;;5081285;28;19916;-83
2024/03/04 08:09:51;;;;;;;;;;;9.70;99.90;;;;;;5081399;28;20302;-82
2024/03/04 08:12:16;;;;;;;;;;;9.70;99.90;;;;;;5095107;28;19916;-84
2024/03/04 08:14:42;;;;;;;;;;;9.70;1.00;;;;;;5104323;28;19930;-84
2024/03/04 08:17:10;;;;;;;;;;;9.80;1.00;;;;;;5086675;28;20022;-85
2024/03/04 08:19:36;;;;;;;;;;;9.90;1.00;;;;;;5090628;28;19912;-84
2024/03/04 08:22:02;;;;;;;;;;;10.10;99.90;;;;;;5098219;28;19919;-83
2024/03/04 08:24:28;;;;;;;;;;;10.20;99.90;;;;;;5096776;28;20329;-85
2024/03/04 08:26:53;;;;;;;;;;;10.30;1.00;;;;;;5083347;28;19920;-84
2024/03/04 08:29:18;;;;;;;;;;;10.30;1.00;;;;;;5079015;28;19977;-82
2024/03/04 08:31:44;;;;;;;;;;;10.40;99.90;;;;;;5061006;28;20003;-84
2024/03/04 08:34:09;;;;;;;;;;;10.40;99.90;;;;;;5077654;28;19912;-84
2024/03/04 08:36:35;;;;;;;;;;;10.50;99.90;;;;;;5075277;28;19931;-85
2024/03/04 08:39:00;;;;;;;;;;;10.40;1.00;;;;;;5076963;28;19913;-85
2024/03/04 08:41:26;;;;;;;;;;;10.40;1.00;;;;;;5067942;28;19913;-84
2024/03/04 08:43:51;;;;;;;;;;;10.50;1.00;;;;;;5079257;28;19912;-84
2024/03/04 08:46:17;;;;;;;;;;;10.50;1.00;;;;;;5094270;28;19916;-84
2024/03/04 08:48:43;;;;;;;;;;;10.50;99.90;;;;;;5079537;28;19939;-84
2024/03/04 08:51:09;;;;;;;;;;;10.50;99.90;;;;;;5075767;28;19920;-84
2024/03/04 08:53:34;;;;;;;;;;;10.60;99.90;;;;;;5083315;28;19919;-83
2024/03/04 08:56:00;;;;;;;;;;;10.60;99.90;;;;;;5079366;28;19935;-84
2024/03/04 08:58:26;;;;;;;;;;;10.60;99.90;;;;;;5074373;28;19920;-83
2024/03/04 09:00:51;;;;;;;;;;;10.70;99.90;;;;;;5083902;28;19920;-82
2024/03/04 09:03:17;;;;;;;;;;;10.70;99.90;;;;;;5070940;28;19974;-82
2024/03/04 09:05:44;;;;;;;;;;;10.70;56.10;;;;;;5073257;28;19916;-83
2024/03/04 09:08:11;;;;;;;;;;;10.70;1.00;;;;;;5083658;28;19920;-84
2024/03/04 09:10:37;;;;;;;;;;;10.70;1.00;;;;;;5081401;28;19916;-84
2024/03/04 09:13:02;;;;;;;;;;;10.70;1.00;;;;;;5088768;28;19920;-84
2024/03/04 09:15:28;;;;;;;;;;;10.70;1.00;;;;;;5079349;28;19913;-86
2024/03/04 09:17:53;;;;;;;;;;;10.60;1.00;;;;;;5076600;28;20007;-82
2024/03/04 09:20:19;;;;;;;;;;;10.60;1.00;;;;;;5076968;28;19920;-82
2024/03/04 09:22:44;;;;;;;;;;;10.60;1.00;;;;;;5070172;28;19912;-85
2024/03/04 09:25:10;;;;;;;;;;;10.50;99.90;;;;;;5077874;28;19931;-83
2024/03/04 09:27:36;;;;;;;;;;;10.50;1.00;;;;;;5075212;28;19919;-83
2024/03/04 09:30:04;;;;;;;;;;;10.50;1.00;;;;;;5077015;28;19973;-84
2024/03/04 09:32:30;;;;;;;;;;;10.50;99.90;;;;;;5080541;28;19908;-82
2024/03/04 09:34:57;;;;;;;;;;;10.40;99.90;;;;;;5074783;28;20428;-83
2024/03/04 09:37:23;;;;;;;;;;;10.40;99.90;;;;;;5074391;28;19919;-85
2024/03/04 09:39:48;;;;;;;;;;;10.50;99.90;;;;;;5079281;28;20302;-84
2024/03/04 09:42:15;;;;;;;;;;;10.50;99.90;;;;;;5096819;28;19909;-84
2024/03/04 09:44:41;;;;;;;;;;;10.60;99.90;;;;;;5090297;28;19919;-84
2024/03/04 09:47:08;;;;;;;;;;;10.80;49.40;;;;;;5097460;28;19920;-82
2024/03/04 09:49:34;;;;;;;;;;;10.80;1.00;;;;;;5090797;28;20374;-81
2024/03/04 09:52:01;;;;;;;;;;;10.90;1.00;;;;;;5098837;28;19908;-82
2024/03/04 09:54:29;;;;;;;;;;;11.00;1.00;;;;;;5084559;28;19922;-86
2024/03/04 09:56:54;;;;;;;;;;;11.00;99.90;;;;;;5081344;28;19916;-84
2024/03/04 09:59:20;;;;;;;;;;;11.00;99.90;;;;;;5086751;28;20412;-82
2024/03/04 10:01:46;;;;;;;;;;;11.00;1.00;;;;;;5088866;28;19967;-82
2024/03/04 10:04:12;;;;;;;;;;;11.00;99.90;;;;;;5082600;28;19912;-82
2024/03/04 10:06:38;;;;;;;;;;;11.00;1.00;;;;;;5086006;28;19987;-82
2024/03/04 10:09:04;;;;;;;;;;;11.00;1.00;;;;;;5086483;28;19966;-81
2024/03/04 10:11:29;;;;;;;;;;;11.10;99.90;;;;;;5081447;28;19912;-83
2024/03/04 10:13:55;;;;;;;;;;;11.10;99.90;;;;;;5091689;28;19916;-83
2024/03/04 10:16:21;;;;;;;;;;;11.20;99.90;;;;;;5083382;28;19962;-83
2024/03/04 10:18:56;;;;;;;;;;;11.30;99.90;;;;;;5080542;28;19979;-83
2024/03/04 10:21:22;;;;;;;;;;;11.50;99.90;;;;;;5074710;28;20293;-82
2024/03/04 10:23:47;;;;;;;;;;;11.60;99.90;;;;;;5074901;28;19908;-82
2024/03/04 10:26:13;;;;;;;;;;;11.80;99.90;;;;;;5091846;28;19952;-81
2024/03/04 10:28:40;;;;;;;;;;;12.00;8.30;;;;;;5081703;28;19919;-82
2024/03/04 10:31:09;;;;;;;;;;;12.30;1.00;;;;;;5082792;28;19920;-83
2024/03/04 10:33:35;;;;;;;;;;;12.50;1.00;;;;;;5084048;28;20465;-83
2024/03/04 10:36:14;;;;;;;;;;;12.50;1.00;;;;;;5080283;28;19913;-82
2024/03/04 10:38:41;;;;;;;;;;;12.50;1.00;;;;;;5077686;28;19919;-81
2024/03/04 10:41:13;;;;;;;;;;;12.40;1.00;;;;;;5079601;28;19912;-83
2024/03/04 10:43:38;;;;;;;;;;;12.40;1.00;;;;;;5087741;28;19919;-81
2024/03/04 10:46:04;;;;;;;;;;;12.40;1.00;;;;;;5089039;28;19956;-83
2024/03/04 10:48:30;;;;;;;;;;;12.40;1.00;;;;;;5082408;28;19912;-82
2024/03/04 10:50:55;;;;;;;;;;;12.40;1.00;;;;;;5084066;28;19967;-84
2024/03/04 10:53:21;;;;;;;;;;;12.30;1.00;;;;;;5087035;28;19930;-83
2024/03/04 10:55:52;;;;;;;;;;;12.30;1.00;;;;;;5079375;28;19916;-82
2024/03/04 10:58:18;;;;;;;;;;;12.30;1.00;;;;;;5075814;28;19927;-83
2024/03/04 11:00:43;;;;;;;;;;;12.20;1.00;;;;;;5077060;28;19909;-82
2024/03/04 11:03:16;;;;;;;;;;;12.20;1.00;;;;;;5075535;28;19919;-82
2024/03/04 11:05:50;;;;;;;;;;;12.10;1.00;;;;;;5084411;28;19909;-82
2024/03/04 11:08:29;;;;;;;;;;;12.10;1.00;;;;;;5081971;28;19955;-82
2024/03/04 11:11:01;;;;;;;;;;;12.20;1.00;;;;;;5079984;28;19912;-81
2024/03/04 11:13:37;;;;;;;;;;;12.30;1.00;;;;;;5079319;28;19916;-83
2024/03/04 11:16:23;;;;;;;;;;;12.40;1.00;;;;;;5090883;28;19912;-83
2024/03/04 11:18:54;;;;;;;;;;;12.40;1.00;;;;;;5078034;28;19968;-85
2024/03/04 11:21:20;;;;;;;;;;;12.50;1.00;;;;;;5086595;28;19955;-84
2024/03/04 11:23:46;;;;;;;;;;;12.70;1.00;;;;;;5089347;28;20397;-82
2024/03/04 11:26:12;;;;;;;;;;;12.90;1.00;;;;;;5078159;28;19948;-82
2024/03/04 11:28:38;;;;;;;;;;;13.10;1.00;;;;;;5067465;28;19916;-82
2024/03/04 11:31:08;;;;;;;;;;;13.30;1.00;;;;;;5078318;28;19912;-82
2024/03/04 11:33:41;;;;;;;;;;;13.40;1.00;;;;;;5088965;28;19909;-81
2024/03/04 11:36:08;;;;;;;;;;;13.50;1.00;;;;;;5076168;28;19948;-81
2024/03/04 11:38:41;;;;;;;;;;;13.70;1.00;;;;;;5072893;28;19934;-82
2024/03/04 11:41:06;;;;;;;;;;;13.80;99.90;;;;;;5073140;28;20338;-81
2024/03/04 11:43:45;;;;;;;;;;;13.80;99.90;;;;;;5072077;28;19947;-81
2024/03/04 11:46:14;;;;;;;;;;;13.80;99.90;;;;;;5067460;28;19909;-82
2024/03/04 11:48:39;;;;;;;;;;;13.80;99.90;;;;;;5066009;28;20294;-82
2024/03/04 11:51:05;;;;;;;;;;;13.70;99.90;;;;;;5068663;28;19924;-82
2024/03/04 11:53:31;;;;;;;;;;;13.70;99.90;;;;;;5075176;28;19908;-83
2024/03/04 11:55:57;;;;;;;;;;;13.80;99.90;;;;;;5077952;28;20011;-82
2024/03/04 11:58:22;;;;;;;;;;;13.90;99.90;;;;;;5082158;28;19909;-83
2024/03/04 12:00:51;;;;;;;;;;;13.80;99.90;;;;;;5080350;28;19932;-81
2024/03/04 12:03:19;;;;;;;;;;;13.80;99.90;;;;;;5084000;28;19919;-83
2024/03/04 12:05:46;;;;;;;;;;;13.70;99.90;;;;;;5076675;28;19913;-84
2024/03/04 12:08:12;;;;;;;;;;;13.60;99.90;;;;;;5074198;28;19934;-84
2024/03/04 12:10:37;;;;;;;;;;;13.50;99.90;;;;;;5087114;28;20008;-83
2024/03/04 12:13:03;;;;;;;;;;;13.50;99.90;;;;;;5078284;28;19909;-84
2024/03/04 12:15:29;;;;;;;;;;;13.60;99.90;;;;;;5089409;28;19916;-83
2024/03/04 12:17:55;;;;;;;;;;;13.60;99.90;;;;;;5091821;28;19947;-83
2024/03/04 12:20:20;;;;;;;;;;;13.70;99.90;;;;;;5079183;28;19916;-80
2024/03/04 12:22:46;;;;;;;;;;;13.70;99.90;;;;;;5074594;28;19917;-84
2024/03/04 12:25:11;;;;;;;;;;;13.80;99.90;;;;;;5079260;28;19908;-84
2024/03/04 12:27:39;;;;;;;;;;;13.80;99.90;;;;;;5072892;28;20433;-83
2024/03/04 12:30:14;;;;;;;;;;;13.80;99.90;;;;;;5080790;28;19916;-84
2024/03/04 12:32:45;;;;;;;;;;;13.80;99.90;;;;;;5078477;28;19988;-83
2024/03/04 12:35:25;;;;;;;;;;;13.80;99.90;;;;;;5088607;28;19916;-82
2024/03/04 12:37:52;;;;;;;;;;;13.80;99.90;;;;;;5076231;28;19999;-82
2024/03/04 12:40:18;;;;;;;;;;;13.90;99.90;;;;;;5078694;28;19920;-84
2024/03/04 12:42:44;;;;;;;;;;;14.00;99.90;;;;;;5073192;28;19983;-82
2024/03/04 12:45:10;;;;;;;;;;;14.10;99.90;;;;;;5073510;28;19959;-83
2024/03/04 12:47:35;;;;;;;;;;;14.10;99.90;;;;;;5087512;28;19951;-83
2024/03/04 12:50:01;;;;;;;;;;;14.10;99.90;;;;;;5084555;28;19919;-84
2024/03/04 12:52:27;;;;;;;;;;;14.10;99.90;;;;;;5087285;28;19955;-83
2024/03/04 12:54:52;;;;;;;;;;;14.20;99.90;;;;;;5087009;28;20398;-83
2024/03/04 12:57:18;;;;;;;;;;;14.20;99.90;;;;;;5077796;28;19934;-83
2024/03/04 12:59:44;;;;;;;;;;;14.30;99.90;;;;;;5076972;28;19919;-83
2024/03/04 13:02:09;;;;;;;;;;;14.50;99.90;;;;;;5081830;28;19915;-84
2024/03/04 13:04:35;;;;;;;;;;;14.60;99.90;;;;;;5091564;28;19908;-82
2024/03/04 13:07:01;;;;;;;;;;;14.70;99.90;;;;;;5078883;28;20358;-82
2024/03/04 13:09:26;;;;;;;;;;;14.90;99.90;;;;;;5080360;28;19920;-82
2024/03/04 13:11:52;;;;;;;;;;;15.30;99.90;;;;;;5063148;28;19919;-83
2024/03/04 13:14:18;;;;;;;;;;;15.80;99.90;;;;;;5060363;28;20228;-84
2024/03/04 13:16:43;;;;;;;;;;;16.30;99.90;;;;;;5060648;28;19938;-84
2024/03/04 13:19:09;;;;;;;;;;;17.00;99.90;;;;;;5069114;28;19948;-83
2024/03/04 13:21:34;;;;;;;;;;;18.00;99.90;;;;;;5068988;28;19942;-83
2024/03/04 13:24:00;;;;;;;;;;;18.90;99.90;;;;;;5067519;28;19919;-84
2024/03/04 13:26:26;;;;;;;;;;;19.50;99.90;;;;;;5060112;28;19917;-87
2024/03/04 13:28:55;;;;;;;;;;;20.00;99.90;;;;;;5055469;28;19967;-86
2024/03/04 13:31:20;;;;;;;;;;;20.30;99.90;;;;;;5074737;28;19916;-84
2024/03/04 13:33:46;;;;;;;;;;;20.60;99.90;;;;;;5076768;28;19924;-84
2024/03/04 13:36:11;;;;;;;;;;;20.80;99.90;;;;;;5067067;28;19987;-84
2024/03/04 13:38:37;;;;;;;;;;;20.90;99.90;;;;;;5064807;28;20291;-84
2024/03/04 13:41:03;;;;;;;;;;;21.20;99.90;;;;;;5069087;28;19917;-84
2024/03/04 13:43:29;;;;;;;;;;;21.50;99.90;;;;;;5077695;28;19912;-84
2024/03/04 13:45:54;;;;;;;;;;;21.70;99.90;;;;;;5071892;28;19917;-85
2024/03/04 13:48:23;;;;;;;;;;;22.00;99.90;;;;;;5069094;28;19928;-84
2024/03/04 13:50:48;;;;;;;;;;;22.00;99.90;;;;;;5065631;28;19920;-85
2024/03/04 13:53:14;;;;;;;;;;;22.10;99.90;;;;;;5068632;28;19913;-85
2024/03/04 13:55:40;;;;;;;;;;;21.70;99.90;;;;;;5064538;28;19917;-84
2024/03/04 13:58:07;;;;;;;;;;;21.70;99.90;;;;;;5062771;28;19912;-84
2024/03/04 14:00:32;;;;;;;;;;;21.70;99.90;;;;;;5063019;28;19970;-85
2024/03/04 14:02:58;;;;;;;;;;;21.80;99.90;;;;;;5061129;28;19913;-84
2024/03/04 14:05:24;;;;;;;;;;;22.00;99.90;;;;;;5068147;28;20376;-84
2024/03/04 14:07:50;;;;;;;;;;;22.00;99.90;;;;;;5059176;28;19913;-83
2024/03/04 14:10:15;;;;;;;;;;;21.90;99.90;;;;;;5061088;28;19975;-84
2024/03/04 14:12:41;;;;;;;;;;;21.80;99.90;;;;;;5062751;28;19912;-84
2024/03/04 14:15:08;;;;;;;;;;;21.60;99.90;;;;;;5058481;28;19917;-84
2024/03/04 14:17:34;;;;;;;;;;;21.10;99.90;;;;;;5062505;28;19921;-83
2024/03/04 14:20:05;;;;;;;;;;;20.40;99.90;;;;;;5063194;28;20812;-84
2024/03/04 14:22:33;;;;;;;;;;;19.80;99.90;;;;;;5059377;28;19913;-85
2024/03/04 14:24:59;;;;;;;;;;;19.30;99.90;;;;;;5062368;28;19966;-85
2024/03/04 14:27:26;;;;;;;;;;;18.70;99.90;;;;;;5060519;28;19913;-84